createdAt,value
2018-04-27T00:00:24.164Z,72.49
2018-04-27T00:01:05.534Z,72.3
2018-04-27T00:01:45.935Z,72.58
2018-04-27T00:02:26.308Z,72.49
2018-04-27T00:03:06.749Z,72.2
2018-04-27T00:03:47.120Z,72.67
2018-04-27T00:04:27.541Z,73.06
2018-04-27T00:05:08.013Z,72.3
2018-04-27T00:05:48.383Z,72.01
2018-04-27T00:06:28.825Z,71.34
2018-04-27T00:07:09.275Z,71.06
2018-04-27T00:07:49.717Z,70.87
2018-04-27T00:08:30.082Z,71.06
2018-04-27T00:09:10.442Z,71.44
2018-04-27T00:09:50.958Z,71.15
2018-04-27T00:10:31.369Z,71.72
2018-04-27T00:11:11.755Z,72.67
2018-04-27T00:11:52.209Z,72.3
2018-04-27T00:12:32.503Z,71.25
2018-04-27T00:13:12.916Z,71.34
2018-04-27T00:13:53.391Z,71.53
2018-04-27T00:14:33.782Z,71.53
2018-04-27T00:15:14.150Z,71.34
2018-04-27T00:15:54.568Z,71.44
2018-04-27T00:16:34.988Z,71.72
2018-04-27T00:17:15.373Z,71.34
2018-04-27T00:17:55.811Z,71.44
2018-04-27T00:18:36.297Z,71.44
2018-04-27T00:19:16.655Z,71.44
2018-04-27T00:19:57.056Z,71.44
2018-04-27T00:20:37.426Z,71.53
2018-04-27T00:21:17.863Z,71.06
2018-04-27T00:21:58.291Z,71.63
2018-04-27T00:22:38.730Z,72.58
2018-04-27T00:23:19.093Z,72.3
2018-04-27T00:23:59.502Z,72.67
2018-04-27T00:24:39.937Z,71.91
2018-04-27T00:25:20.404Z,72.2
2018-04-27T00:26:00.815Z,73.15
2018-04-27T00:26:41.223Z,72.77
2018-04-27T00:27:21.628Z,72.3
2018-04-27T00:28:02.033Z,72.58
2018-04-27T00:28:42.419Z,73.44
2018-04-27T00:29:22.797Z,72.58
2018-04-27T00:30:03.238Z,71.53
2018-04-27T00:30:43.623Z,71.25
2018-04-27T00:31:24.101Z,71.06
2018-04-27T00:32:04.475Z,70.39
2018-04-27T00:32:44.865Z,70.49
2018-04-27T00:33:25.277Z,70.68
2018-04-27T00:34:05.644Z,70.87
2018-04-27T00:34:46.104Z,71.44
2018-04-27T00:35:26.495Z,72.11
2018-04-27T00:36:06.907Z,72.58
2018-04-27T00:36:47.358Z,72.58
2018-04-27T00:37:27.772Z,72.49
2018-04-27T00:38:08.222Z,71.44
2018-04-27T00:38:48.584Z,72.3
2018-04-27T00:39:29.053Z,71.44
2018-04-27T00:40:09.444Z,72.01
2018-04-27T00:40:49.814Z,72.3
2018-04-27T00:41:30.224Z,71.34
2018-04-27T00:42:10.693Z,71.44
2018-04-27T00:42:51.079Z,71.34
2018-04-27T00:43:31.489Z,71.72
2018-04-27T00:44:11.938Z,71.63
2018-04-27T00:44:52.306Z,70.58
2018-04-27T00:45:32.701Z,71.44
2018-04-27T00:46:13.144Z,71.34
2018-04-27T00:46:53.559Z,71.15
2018-04-27T00:47:34.029Z,71.82
2018-04-27T00:48:14.425Z,70.87
2018-04-27T00:48:54.795Z,71.25
2018-04-27T00:49:35.214Z,71.25
2018-04-27T00:50:15.678Z,71.25
2018-04-27T00:58:40.870Z,72.86
2018-04-27T00:59:21.246Z,73.06
2018-04-27T01:00:01.700Z,72.86
2018-04-27T01:00:42.114Z,72.39
2018-04-27T01:01:22.523Z,72.2
2018-04-27T01:02:02.893Z,71.72
2018-04-27T01:02:43.317Z,72.2
2018-04-27T01:03:23.707Z,72.49
2018-04-27T01:04:04.099Z,72.11
2018-04-27T01:04:44.497Z,72.11
2018-04-27T01:05:24.910Z,72.01
2018-04-27T01:06:05.309Z,72.3
2018-04-27T01:06:45.769Z,72.11
2018-04-27T01:07:26.179Z,72.96
2018-04-27T01:08:06.594Z,72.49
2018-04-27T01:08:46.951Z,72.96
2018-04-27T01:09:27.408Z,72.3
2018-04-27T01:10:07.776Z,71.91
2018-04-27T01:10:48.192Z,72.96
2018-04-27T01:11:28.551Z,72.39
2018-04-27T01:12:09.023Z,72.3
2018-04-27T01:12:49.407Z,71.82
2018-04-27T01:13:29.801Z,72.3
2018-04-27T01:14:10.183Z,73.06
2018-04-27T01:14:50.611Z,73.25
2018-04-27T01:15:31.025Z,72.49
2018-04-27T01:16:11.483Z,72.86
2018-04-27T01:16:51.842Z,73.25
2018-04-27T01:17:32.291Z,73.06
2018-04-27T01:18:12.634Z,73.06
2018-04-27T01:18:53.042Z,73.02
2018-04-27T01:19:33.521Z,73.21
2018-04-27T01:20:13.900Z,73.15
2018-04-27T01:20:54.243Z,72.86
2018-04-27T01:21:34.671Z,73.53
2018-04-27T01:22:15.108Z,73.25
2018-04-27T01:25:23.547Z,73.06
2018-04-27T01:26:12.171Z,72.67
2018-04-27T01:28:38.833Z,72.86
2018-04-27T01:30:43.493Z,73.25
2018-04-27T01:31:23.560Z,73.15
2018-04-27T01:32:03.972Z,72.39
2018-04-27T01:32:44.378Z,72.2
2018-04-27T01:33:24.801Z,71.34
2018-04-27T01:34:05.195Z,71.15
2018-04-27T01:34:45.601Z,72.3
2018-04-27T01:35:26.014Z,72.01
2018-04-27T01:36:06.417Z,71.72
2018-04-27T01:36:46.786Z,71.34
2018-04-27T01:37:27.235Z,71.15
2018-04-27T01:38:07.636Z,71.91
2018-04-27T01:38:48.065Z,72.58
2018-04-27T01:39:28.475Z,72.49
2018-04-27T01:40:08.915Z,72.96
2018-04-27T01:40:49.373Z,73.15
2018-04-27T01:41:29.798Z,72.67
2018-04-27T01:42:10.173Z,72.2
2018-04-27T01:42:50.605Z,71.82
2018-04-27T01:43:31.035Z,71.82
2018-04-27T01:44:11.475Z,71.34
2018-04-27T01:44:51.866Z,72.11
2018-04-27T01:45:32.239Z,72.11
2018-04-27T01:46:12.649Z,71.63
2018-04-27T01:46:53.010Z,71.44
2018-04-27T01:47:33.430Z,71.06
2018-04-27T01:48:13.830Z,71.53
2018-04-27T01:48:54.284Z,71.72
2018-04-27T01:49:34.748Z,71.63
2018-04-27T01:50:15.128Z,71.34
2018-04-27T01:50:55.562Z,71.63
2018-04-27T01:51:35.973Z,70.87
2018-04-27T01:52:16.355Z,70.77
2018-04-27T01:52:56.779Z,71.44
2018-04-27T01:53:37.177Z,71.72
2018-04-27T01:54:17.584Z,71.25
2018-04-27T01:54:57.971Z,70.87
2018-04-27T01:55:38.336Z,70.97
2018-04-27T01:56:18.770Z,72.2
2018-04-27T01:56:59.187Z,72.2
2018-04-27T01:57:39.628Z,71.34
2018-04-27T01:58:20.103Z,71.34
2018-04-27T01:59:00.523Z,71.25
2018-04-27T01:59:40.930Z,70.77
2018-04-27T02:00:21.276Z,72.3
2018-04-27T02:01:01.773Z,72.49
2018-04-27T02:01:42.158Z,71.91
2018-04-27T02:02:22.580Z,71.34
2018-04-27T02:03:03.010Z,71.25
2018-04-27T02:03:43.407Z,71.44
2018-04-27T02:04:23.827Z,71.63
2018-04-27T02:05:04.202Z,72.67
2018-04-27T02:05:44.613Z,72.67
2018-04-27T02:06:25.063Z,72.45
2018-04-27T02:07:05.423Z,72.35
2018-04-27T02:07:45.858Z,71.88
2018-04-27T02:08:26.283Z,72.35
2018-04-27T02:09:06.760Z,72.35
2018-04-27T02:09:47.108Z,72.45
2018-04-27T02:10:27.473Z,72.64
2018-04-27T02:11:07.935Z,72.64
2018-04-27T02:11:48.386Z,72.45
2018-04-27T02:12:28.780Z,73.02
2018-04-27T02:13:09.171Z,73.02
2018-04-27T02:13:49.523Z,72.92
2018-04-27T02:14:29.958Z,73.21
2018-04-27T02:15:10.365Z,73.59
2018-04-27T02:15:50.786Z,73.4
2018-04-27T02:16:31.259Z,73.11
2018-04-27T02:17:11.676Z,72.83
2018-04-27T02:17:52.101Z,73.69
2018-04-27T02:18:32.482Z,74.26
2018-04-27T02:19:12.892Z,74.07
2018-04-27T02:19:53.281Z,74.82
2018-04-27T02:20:33.662Z,73.78
2018-04-27T02:21:14.117Z,73.3
2018-04-27T02:21:54.547Z,73.4
2018-04-27T02:22:34.912Z,73.3
2018-04-27T02:23:15.352Z,73.4
2018-04-27T02:23:55.772Z,74.16
2018-04-27T02:24:36.173Z,74.07
2018-04-27T02:25:16.660Z,74.35
2018-04-27T02:25:57.072Z,74.07
2018-04-27T02:26:37.470Z,74.73
2018-04-27T02:27:17.899Z,74.63
2018-04-27T02:27:58.276Z,74.26
2018-04-27T02:28:38.718Z,74.73
2018-04-27T02:29:19.128Z,75.21
2018-04-27T02:29:59.557Z,74.44
2018-04-27T02:30:39.959Z,74.26
2018-04-27T02:31:20.391Z,74.63
2018-04-27T02:32:00.729Z,74.82
2018-04-27T02:32:41.120Z,74.26
2018-04-27T02:33:21.528Z,74.16
2018-04-27T02:34:01.937Z,74.92
2018-04-27T02:34:42.370Z,74.16
2018-04-27T02:35:22.767Z,74.82
2018-04-27T02:36:03.180Z,74.54
2018-04-27T02:36:43.572Z,73.88
2018-04-27T02:37:24.047Z,74.82
2018-04-27T02:38:04.419Z,75.4
2018-04-27T02:38:44.830Z,75.02
2018-04-27T02:39:25.274Z,73.69
2018-04-27T02:40:05.641Z,73.78
2018-04-27T02:40:46.056Z,73.69
2018-04-27T02:41:26.443Z,73.78
2018-04-27T02:42:06.856Z,74.54
2018-04-27T02:42:47.280Z,73.97
2018-04-27T02:43:27.676Z,73.4
2018-04-27T02:44:08.098Z,73.11
2018-04-27T02:44:48.534Z,73.11
2018-04-27T02:45:28.964Z,73.3
2018-04-27T02:46:09.437Z,74.82
2018-04-27T02:46:49.797Z,76.16
2018-04-27T02:47:30.167Z,75.21
2018-04-27T02:48:10.595Z,75.3
2018-04-27T02:48:51.034Z,75.3
2018-04-27T02:49:31.549Z,74.44
2018-04-27T02:50:11.886Z,73.69
2018-04-27T02:50:52.324Z,73.3
2018-04-27T02:51:32.622Z,73.78
2018-04-27T02:52:13.030Z,74.26
2018-04-27T02:52:53.511Z,74.07
2018-04-27T02:55:08.802Z,74.73
2018-04-27T02:55:49.074Z,75.96
2018-04-27T02:56:29.463Z,75.96
2018-04-27T02:57:09.880Z,75.4
2018-04-27T02:57:50.294Z,74.54
2018-04-27T02:58:30.696Z,74.35
2018-04-27T02:59:11.124Z,74.63
2018-04-27T02:59:51.504Z,74.63
2018-04-27T03:00:31.870Z,74.26
2018-04-27T03:01:12.342Z,74.16
2018-04-27T03:01:52.731Z,74.35
2018-04-27T03:02:33.180Z,73.97
2018-04-27T03:03:13.623Z,74.35
2018-04-27T03:03:54.069Z,74.22
2018-04-27T03:04:34.422Z,75.07
2018-04-27T03:05:14.857Z,75.84
2018-04-27T03:05:55.287Z,76.16
2018-04-27T03:06:35.638Z,75.96
2018-04-27T03:07:16.004Z,75.87
2018-04-27T03:07:56.376Z,76.16
2018-04-27T03:08:36.788Z,75.4
2018-04-27T03:09:17.178Z,74.79
2018-04-27T03:09:57.593Z,74.88
2018-04-27T03:10:38.028Z,74.6
2018-04-27T03:11:18.426Z,75.84
2018-04-27T03:11:58.884Z,76.21
2018-04-27T03:12:39.227Z,76.03
2018-04-27T03:13:19.646Z,75.26
2018-04-27T03:14:00.036Z,75.36
2018-04-27T03:14:40.431Z,75.55
2018-04-27T03:15:20.858Z,75.26
2018-04-27T03:16:01.236Z,75.55
2018-04-27T03:16:41.610Z,76.12
2018-04-27T03:17:22.068Z,75.93
2018-04-27T03:18:02.451Z,77.17
2018-04-27T03:18:42.891Z,76.78
2018-04-27T03:19:23.232Z,76.5
2018-04-27T03:20:03.691Z,76.31
2018-04-27T03:20:44.045Z,75.93
2018-04-27T03:21:24.501Z,75.84
2018-04-27T03:22:04.887Z,76.5
2018-04-27T03:22:45.252Z,76.4
2018-04-27T03:23:25.648Z,76.88
2018-04-27T03:24:06.090Z,76.88
2018-04-27T03:24:46.481Z,75.84
2018-04-27T03:25:26.912Z,75.84
2018-04-27T03:26:07.307Z,76.69
2018-04-27T03:26:47.686Z,75.93
2018-04-27T03:27:28.068Z,75.26
2018-04-27T03:28:08.541Z,74.98
2018-04-27T03:32:16.228Z,76.31
2018-04-27T03:33:00.938Z,77.07
2018-04-27T03:37:23.967Z,76.97
2018-04-27T03:38:07.571Z,77.83
2018-04-27T03:38:47.205Z,77.92
2018-04-27T03:39:27.599Z,77.55
2018-04-27T03:40:08.021Z,77.17
2018-04-27T03:40:48.421Z,76.97
2018-04-27T03:41:28.957Z,76.88
2018-04-27T03:42:09.267Z,75.93
2018-04-27T03:42:49.699Z,76.4
2018-04-27T03:47:39.786Z,75.21
2018-04-27T03:53:51.370Z,75.02
2018-04-27T03:57:13.252Z,74.16
2018-04-27T03:57:55.553Z,75.02
2018-04-27T03:58:36.009Z,74.35
2018-04-27T03:59:16.383Z,73.88
2018-04-27T03:59:56.791Z,73.21
2018-04-27T04:00:37.281Z,73.4
2018-04-27T04:01:17.664Z,73.4
2018-04-27T04:01:58.065Z,73.49
2018-04-27T04:44:12.071Z,79.54
2018-04-27T04:44:57.806Z,80.68
2018-04-27T04:45:40.822Z,79.25
2018-04-27T04:46:20.992Z,78.97
2018-04-27T04:47:01.343Z,80.02
2018-04-27T04:47:41.767Z,80.11
2018-04-27T04:48:22.176Z,79.73
2018-04-27T04:49:02.587Z,78.97
2018-04-27T04:49:43.015Z,78.69
2018-04-27T04:50:23.422Z,78.11
2018-04-27T04:51:03.886Z,78.3
2018-04-27T04:51:44.238Z,78.5
2018-04-27T04:52:24.643Z,78.4
2018-04-27T04:53:05.056Z,78.97
2018-04-27T04:53:45.481Z,79.11
2018-04-27T04:54:25.899Z,79.11
2018-04-27T04:55:06.366Z,78.44
2018-04-27T04:55:46.722Z,77.97
2018-04-27T04:56:27.164Z,77.77
2018-04-27T04:58:22.644Z,77.87
2018-04-27T05:02:04.717Z,75.96
2018-04-27T05:02:50.974Z,75.78
2018-04-27T05:21:09.098Z,55.13
2018-04-27T05:21:50.626Z,55.23
2018-04-27T05:22:31.555Z,54.85
2018-04-27T05:23:12.626Z,55.32
2018-04-27T05:23:55.016Z,54.75
2018-04-27T05:24:35.529Z,54.75
2018-04-27T05:25:15.228Z,55.52
2018-04-27T05:25:55.597Z,55.54
2018-04-27T05:26:36.543Z,55.35
2018-04-27T05:27:17.093Z,55.38
2018-04-27T05:27:57.417Z,53.37
2018-04-27T05:28:38.609Z,52.99
2018-04-27T05:29:19.040Z,52.25
2018-04-27T05:29:59.783Z,51.2
2018-04-27T05:30:40.518Z,51.1
2018-04-27T05:31:20.747Z,51.2
2018-04-27T05:32:01.207Z,50.46
2018-04-27T05:32:41.582Z,49.79
2018-04-27T05:33:22.514Z,50.36
2018-04-27T05:34:02.878Z,49.11
2018-04-27T05:34:43.324Z,48.73
2018-04-27T05:35:23.761Z,49.14
2018-04-27T05:36:04.228Z,48.95
2018-04-27T05:36:44.622Z,48.38
2018-04-27T05:37:25.061Z,48.18
2018-04-27T05:38:05.656Z,48.75
2018-04-27T05:38:45.881Z,47.53
2018-04-27T05:39:26.297Z,46.86
2018-04-27T05:40:07.716Z,46.75
2018-04-27T05:40:48.121Z,47.99
2018-04-27T05:41:28.707Z,47.89
2018-04-27T05:42:09.099Z,49.31
2018-04-27T05:42:49.487Z,50.36
2018-04-27T05:43:32.967Z,49.57
2018-04-27T05:44:13.027Z,49.95
2018-04-27T05:44:53.496Z,50.98
2018-04-27T05:45:34.060Z,51.93
2018-04-27T05:46:14.826Z,52.39
2018-04-27T05:46:55.731Z,53.92
2018-04-27T05:47:36.074Z,54.3
2018-04-27T05:48:16.949Z,54.59
2018-04-27T05:48:57.489Z,55.35
2018-04-27T05:49:37.950Z,56.28
2018-04-27T05:50:18.539Z,56.67
2018-04-27T05:51:01.240Z,56.47
2018-04-27T05:51:43.174Z,56.92
2018-04-27T05:52:25.155Z,57.21
2018-04-27T05:53:05.631Z,57.5
2018-04-27T05:53:46.799Z,57.68
2018-04-27T05:54:26.687Z,57.97
2018-04-27T05:55:07.204Z,58.93
2018-04-27T05:55:48.034Z,59.31
2018-04-27T05:56:28.508Z,59.02
2018-04-27T05:57:08.761Z,58.93
2018-04-27T05:57:49.231Z,58.93
2018-04-27T05:58:29.567Z,59.19
2018-04-27T05:59:09.982Z,59.56
2018-04-27T05:59:50.397Z,59.66
2018-04-27T06:00:30.999Z,60.24
2018-04-27T06:01:11.406Z,60.81
2018-04-27T06:01:52.328Z,60.24
2018-04-27T06:02:32.743Z,60.33
2018-04-27T06:03:13.213Z,60.04
2018-04-27T06:03:53.711Z,60.24
2018-04-27T06:04:34.536Z,60.04
2018-04-27T06:05:15.223Z,59.76
2018-04-27T06:05:56.820Z,60.24
2018-04-27T06:06:37.178Z,60.24
2018-04-27T06:07:17.592Z,60.24
2018-04-27T06:07:58.040Z,59.85
2018-04-27T06:08:38.403Z,59.09
2018-04-27T06:09:18.833Z,59.22
2018-04-27T06:09:59.384Z,59.22
2018-04-27T06:10:39.933Z,59.22
2018-04-27T06:11:20.240Z,58.93
2018-04-27T06:12:00.691Z,59.02
2018-04-27T06:12:41.173Z,59.12
2018-04-27T06:13:21.667Z,59.02
2018-04-27T06:14:02.093Z,59.02
2018-04-27T06:14:42.611Z,58.07
2018-04-27T06:15:23.432Z,57.5
2018-04-27T06:16:03.702Z,57.59
2018-04-27T06:16:44.064Z,57.59
2018-04-27T06:17:24.616Z,57.5
2018-04-27T06:18:05.662Z,57.4
2018-04-27T06:18:46.091Z,56.92
2018-04-27T06:19:27.521Z,56.38
2018-04-27T06:20:08.096Z,56.38
2018-04-27T06:20:48.693Z,55.9
2018-04-27T06:21:29.518Z,56.47
2018-04-27T06:22:11.271Z,55.23
2018-04-27T06:22:52.071Z,54.94
2018-04-27T06:23:33.123Z,54.94
2018-04-27T06:25:49.236Z,54.68
2018-04-27T06:26:31.704Z,54.21
2018-04-27T06:27:18.479Z,54.68
2018-04-27T06:27:59.171Z,54.88
2018-04-27T06:28:40.901Z,53.92
2018-04-27T06:29:24.625Z,53.25
2018-04-27T06:30:07.744Z,53.18
2018-04-27T06:30:48.381Z,53.06
2018-04-27T06:31:28.690Z,53.25
2018-04-27T06:32:10.893Z,53.92
2018-04-27T06:32:51.258Z,53.85
2018-04-27T06:33:31.618Z,53.94
2018-04-27T06:34:12.660Z,53.66
2018-04-27T06:34:53.023Z,52.99
2018-04-27T06:35:33.644Z,52.89
2018-04-27T06:36:14.026Z,53.08
2018-04-27T06:36:54.605Z,53.08
2018-04-27T06:37:36.734Z,53.66
2018-04-27T06:38:18.141Z,53.63
2018-04-27T06:38:58.699Z,54.02
2018-04-27T06:39:40.602Z,53.92
2018-04-27T06:40:22.892Z,54.39
2018-04-27T06:41:03.901Z,54.11
2018-04-27T06:41:45.537Z,54.88
2018-04-27T06:42:26.455Z,55.16
2018-04-27T06:43:09.515Z,55.16
2018-04-27T06:43:52.133Z,55.42
2018-04-27T06:44:32.237Z,54.97
2018-04-27T06:45:12.700Z,54.97
2018-04-27T06:45:56.083Z,54.39
2018-04-27T06:46:39.358Z,54.21
2018-04-27T06:47:19.797Z,54.56
2018-04-27T06:51:25.130Z,55.49
2018-04-27T06:52:06.565Z,55.58
2018-04-27T06:52:47.121Z,56.67
2018-04-27T06:54:08.365Z,56.47
2018-04-27T06:54:48.643Z,55.71
2018-04-27T06:55:32.975Z,55.61
2018-04-27T06:56:13.544Z,55.23
2018-04-27T06:56:53.842Z,55.32
2018-04-27T06:57:35.753Z,56.21
2018-04-27T06:58:22.206Z,54.59
2018-04-27T06:59:06.821Z,54.39
2018-04-27T06:59:47.349Z,53.73
2018-04-27T07:00:29.026Z,54.21
2018-04-27T07:01:09.284Z,54.39
2018-04-27T07:06:48.262Z,53.85
2018-04-27T07:09:31.900Z,53.08
2018-04-27T07:10:43.475Z,52.99
2018-04-27T07:12:50.961Z,53.28
2018-04-27T07:13:32.958Z,54.04
2018-04-27T07:14:14.051Z,54.8
2018-04-27T07:14:54.167Z,54.43
2018-04-27T07:15:34.530Z,54.43
2018-04-27T07:16:16.012Z,54.61
2018-04-27T07:16:56.584Z,54.71
2018-04-27T07:17:36.857Z,54.71
2018-04-27T07:18:17.800Z,54.23
2018-04-27T07:18:58.119Z,54.23
2018-04-27T07:19:38.504Z,54.52
2018-04-27T07:29:34.076Z,50.74
2018-04-27T07:36:47.149Z,49.62
2018-04-27T07:37:27.488Z,49.91
2018-04-27T07:38:08.589Z,49.93
2018-04-27T07:38:49.455Z,49.71
2018-04-27T07:39:30.728Z,49.45
2018-04-27T07:40:11.970Z,49.33
2018-04-27T07:40:52.779Z,48.88
2018-04-27T07:41:33.421Z,48.95
2018-04-27T07:42:13.679Z,49.33
2018-04-27T07:42:54.639Z,49.62
2018-04-27T07:47:18.574Z,48.02
2018-04-27T07:54:46.937Z,47.3
2018-04-27T07:55:25.500Z,47.1
2018-04-27T07:56:05.895Z,46.72
2018-04-27T07:56:47.215Z,46.45
2018-04-27T08:10:44.634Z,46.77
2018-04-27T08:12:42.707Z,45.93
2018-04-27T08:16:40.827Z,43.9
2018-04-27T08:17:22.054Z,43.8
2018-04-27T08:18:02.905Z,44.27
2018-04-27T08:18:44.210Z,44.93
2018-04-27T08:19:24.844Z,44.76
2018-04-27T08:20:06.137Z,44.37
2018-04-27T08:20:46.916Z,45.04
2018-04-27T08:21:27.524Z,44.73
2018-04-27T08:22:10.842Z,45.62
2018-04-27T08:22:51.056Z,45.81
2018-04-27T08:23:32.011Z,45.52
2018-04-27T08:24:13.398Z,45.52
2018-04-27T08:24:55.068Z,45.43
2018-04-27T08:25:35.546Z,44.95
2018-04-27T08:26:15.735Z,45.14
2018-04-27T08:26:58.188Z,45.74
2018-04-27T08:27:38.238Z,44.2
2018-04-27T08:28:19.149Z,44.11
2018-04-27T08:29:00.089Z,44.01
2018-04-27T08:29:41.175Z,44.3
2018-04-27T08:30:22.297Z,44.11
2018-04-27T08:31:03.371Z,44.2
2018-04-27T08:31:44.077Z,43.53
2018-04-27T08:32:24.796Z,43.73
2018-04-27T08:33:05.644Z,43.9
2018-04-27T08:33:46.399Z,43.99
2018-04-27T08:34:27.281Z,44.47
2018-04-27T08:35:08.235Z,44.56
2018-04-27T08:35:48.863Z,45.04
2018-04-27T08:36:29.595Z,44.09
2018-04-27T08:37:11.564Z,44.76
2018-04-27T08:37:51.522Z,44.85
2018-04-27T08:38:32.454Z,45.72
2018-04-27T08:39:13.121Z,44.95
2018-04-27T08:39:54.048Z,45.04
2018-04-27T08:40:34.809Z,45.23
2018-04-27T08:41:15.676Z,45.26
2018-04-27T08:41:56.090Z,44.3
2018-04-27T08:42:36.656Z,45.07
2018-04-27T08:43:17.640Z,45.07
2018-04-27T08:43:58.109Z,44.87
2018-04-27T08:44:39.464Z,43.91
2018-04-27T08:45:19.681Z,44.13
2018-04-27T08:46:00.687Z,43.55
2018-04-27T08:46:41.319Z,43.84
2018-04-27T08:47:22.325Z,43.07
2018-04-27T08:48:02.773Z,42.98
2018-04-27T08:48:43.301Z,42.5
2018-04-27T08:49:25.321Z,42.98
2018-04-27T08:50:06.788Z,43.36
2018-04-27T08:50:49.271Z,43
2018-04-27T08:51:29.855Z,42.71
2018-04-27T08:52:10.378Z,42.43
2018-04-27T08:52:51.452Z,42.04
2018-04-27T08:53:32.220Z,41.46
2018-04-27T08:54:13.212Z,41.08
2018-04-27T08:54:53.870Z,41.08
2018-04-27T08:55:34.721Z,41.17
2018-04-27T08:56:15.718Z,41.35
2018-04-27T08:56:56.810Z,41.75
2018-04-27T08:57:38.651Z,41.37
2018-04-27T08:58:21.190Z,40.79
2018-04-27T08:59:01.547Z,40.6
2018-04-27T08:59:42.108Z,40.22
2018-04-27T09:00:22.849Z,40.22
2018-04-27T09:01:03.524Z,40.12
2018-04-27T09:01:44.696Z,39.73
2018-04-27T09:02:25.301Z,39.54
2018-04-27T09:03:06.182Z,40.12
2018-04-27T09:03:46.899Z,40.12
2018-04-27T09:04:28.284Z,40.6
2018-04-27T09:05:08.810Z,40.41
2018-04-27T09:05:49.374Z,40.41
2018-04-27T09:06:31.073Z,40.5
2018-04-27T09:07:11.951Z,40.33
2018-04-27T09:07:52.427Z,40.23
2018-04-27T09:08:32.999Z,39.18
2018-04-27T09:09:13.648Z,39.08
2018-04-27T09:09:54.467Z,38.89
2018-04-27T09:10:35.722Z,38.51
2018-04-27T09:14:01.969Z,37.16
2018-04-27T09:23:11.565Z,36.13
2018-04-27T09:23:54.026Z,35.55
2018-04-27T09:24:34.783Z,35.55
2018-04-27T09:25:16.487Z,36.03
2018-04-27T09:25:57.338Z,36.22
2018-04-27T09:26:37.868Z,36.41
2018-04-27T09:27:18.908Z,36.13
2018-04-27T09:27:59.689Z,36.6
2018-04-27T09:28:40.023Z,36.9
2018-04-27T09:29:21.437Z,37.57
2018-04-27T09:30:01.952Z,37.27
2018-04-27T09:30:43.277Z,37.57
2018-04-27T09:31:25.665Z,37.27
2018-04-27T09:32:06.326Z,37.18
2018-04-27T09:32:46.697Z,37.18
2018-04-27T09:33:27.601Z,37.08
2018-04-27T09:34:08.944Z,35.74
2018-04-27T09:34:48.811Z,34.99
2018-04-27T09:35:30.017Z,34.88
2018-04-27T09:36:11.419Z,35.38
2018-04-27T09:36:52.567Z,35.08
2018-04-27T09:37:33.256Z,34.2
2018-04-27T09:38:13.965Z,34.01
2018-04-27T09:38:54.623Z,33.82
2018-04-27T09:39:36.348Z,33.91
2018-04-27T09:40:17.105Z,33.82
2018-04-27T09:40:57.507Z,33.64
2018-04-27T09:41:38.475Z,32.97
2018-04-27T09:42:19.298Z,31.72
2018-04-27T09:42:59.944Z,31.99
2018-04-27T09:43:40.915Z,32.67
2018-04-27T09:44:21.931Z,33.24
2018-04-27T09:45:02.609Z,33.82
2018-04-27T09:45:43.269Z,33.91
2018-04-27T09:46:24.398Z,33.62
2018-04-27T09:47:05.368Z,32.86
2018-04-27T09:47:46.210Z,33.62
2018-04-27T09:48:27.076Z,33.62
2018-04-27T09:49:08.296Z,32.57
2018-04-27T09:49:49.206Z,31.99
2018-04-27T09:50:30.704Z,31.13
2018-04-27T09:51:11.126Z,31.61
2018-04-27T09:51:52.452Z,31.32
2018-04-27T09:52:32.333Z,31.32
2018-04-27T09:53:13.845Z,31.4
2018-04-27T09:53:54.755Z,32.47
2018-04-27T09:54:35.200Z,32.18
2018-04-27T09:55:16.454Z,31.61
2018-04-27T09:55:57.303Z,31.41
2018-04-27T09:56:37.983Z,31.13
2018-04-27T09:57:18.592Z,30.84
2018-04-27T09:57:58.885Z,30.93
2018-04-27T09:58:39.790Z,30.65
2018-04-27T09:59:20.230Z,30.74
2018-04-27T10:00:00.863Z,30.84
2018-04-27T10:00:41.658Z,31.23
2018-04-27T10:01:21.799Z,31.32
2018-04-27T10:02:02.476Z,31.62
2018-04-27T10:02:44.945Z,31.24
2018-04-27T10:03:25.436Z,31.43
2018-04-27T10:04:05.868Z,31.82
2018-04-27T10:45:03.089Z,34.19
2018-04-27T10:45:43.458Z,33.8
2018-04-27T10:46:24.068Z,33.62
2018-04-27T10:47:04.431Z,32.95
2018-04-27T10:47:44.857Z,32.95
2018-04-27T10:48:25.268Z,32.95
2018-04-27T10:49:05.758Z,32.95
2018-04-27T10:49:46.220Z,33.62
2018-04-27T10:50:27.083Z,33.64
2018-04-27T10:51:07.803Z,32.68
2018-04-27T10:51:48.681Z,31.9
2018-04-27T10:52:29.172Z,31.7
2018-04-27T10:53:09.721Z,32.76
2018-04-27T10:53:50.115Z,33.62
2018-04-27T10:54:30.956Z,33.05
2018-04-27T10:55:11.350Z,33.34
2018-04-27T10:55:51.931Z,31.99
2018-04-27T10:56:32.394Z,31.53
2018-04-27T10:57:13.326Z,31.34
2018-04-27T10:57:53.574Z,30.85
2018-04-27T10:58:33.974Z,30.76
2018-04-27T10:59:14.398Z,30.36
2018-04-27T10:59:55.029Z,30.47
2018-04-27T11:00:35.513Z,30.66
2018-04-27T11:01:15.915Z,30.95
2018-04-27T11:01:56.362Z,30.95
2018-04-27T11:02:36.845Z,30.28
2018-04-27T11:03:18.065Z,30.58
2018-04-27T11:03:58.294Z,30
2018-04-27T11:04:39.071Z,29.62
2018-04-27T11:05:19.927Z,30.1
2018-04-27T11:06:00.217Z,30
2018-04-27T11:06:40.727Z,30.1
2018-04-27T11:07:21.410Z,29.91
2018-04-27T11:08:02.128Z,30.4
2018-04-27T11:08:42.723Z,29.73
2018-04-27T11:09:23.195Z,29.63
2018-04-27T11:10:03.689Z,29.63
2018-04-27T11:10:44.645Z,30.4
2018-04-27T11:11:25.069Z,30.5
2018-04-27T11:12:06.173Z,30.6
2018-04-27T11:12:46.607Z,29.35
2018-04-27T11:26:06.913Z,30.29
2018-04-27T11:26:47.634Z,29.33
2018-04-27T11:27:28.737Z,28.66
2018-04-27T11:28:09.138Z,29.04
2018-04-27T11:28:49.600Z,28.75
2018-04-27T11:29:30.108Z,28.66
2018-04-27T11:30:11.079Z,28.67
2018-04-27T11:30:52.411Z,29.25
2018-04-27T11:31:32.777Z,29.73
2018-04-27T11:32:13.234Z,28.67
2018-04-27T11:32:53.647Z,28.69
2018-04-27T11:33:34.293Z,28.02
2018-04-27T11:34:14.883Z,28.31
2018-04-27T11:34:55.436Z,28.7
2018-04-27T11:35:35.635Z,28.22
2018-04-27T11:36:16.133Z,28.22
2018-04-27T11:36:58.023Z,27.26
2018-04-27T11:37:38.416Z,26.78
2018-04-27T11:38:18.822Z,27.24
2018-04-27T11:39:00.249Z,28.02
2018-04-27T11:39:40.553Z,28.02
2018-04-27T11:40:21.037Z,27.92
2018-04-27T11:41:02.595Z,27.62
2018-04-27T11:41:44.869Z,28.09
2018-04-27T11:42:26.102Z,28.86
2018-04-27T11:43:06.836Z,29.83
2018-04-27T11:43:47.431Z,28.97
2018-04-27T11:44:29.457Z,28.78
2018-04-27T11:45:10.211Z,28.02
2018-04-27T11:45:51.627Z,27.92
2018-04-27T11:46:32.477Z,28.02
2018-04-27T11:47:12.897Z,28.2
2018-04-27T11:47:53.589Z,28.3
2018-04-27T11:48:34.342Z,28.58
2018-04-27T11:49:15.147Z,28.88
2018-04-27T11:49:56.695Z,28.96
2018-04-27T11:50:38.085Z,29.15
2018-04-27T11:51:18.425Z,30.22
2018-04-27T11:51:58.583Z,30.61
2018-04-27T11:52:39.225Z,30.15
2018-04-27T11:53:19.923Z,28.8
2018-04-27T11:54:00.729Z,28.31
2018-04-27T11:54:41.344Z,28.99
2018-04-27T11:55:22.054Z,28.78
2018-04-27T11:57:19.507Z,30.04
2018-04-27T11:57:59.926Z,30.8
2018-04-27T11:58:41.536Z,30.71
2018-04-27T11:59:23.242Z,30.42
2018-04-27T12:00:03.537Z,30.32
2018-04-27T12:00:44.692Z,29.74
2018-04-27T12:01:26.114Z,29.84
2018-04-27T12:02:06.490Z,29.76
2018-04-27T12:02:48.123Z,29.86
2018-04-27T12:03:27.905Z,29.08
2018-04-27T12:04:09.852Z,29.38
2018-04-27T12:04:50.705Z,29.49
2018-04-27T12:05:31.353Z,29.1
2018-04-27T12:06:12.075Z,29.1
2018-04-27T12:06:52.935Z,28.81
2018-04-27T12:07:34.733Z,29
2018-04-27T12:08:15.726Z,29.2
2018-04-27T12:08:56.996Z,28.91
2018-04-27T12:09:39.008Z,29.18
2018-04-27T12:10:21.147Z,30.05
2018-04-27T12:11:02.869Z,30.43
2018-04-27T12:11:43.528Z,30.55
2018-04-27T12:12:27.116Z,29.87
2018-04-27T12:13:07.777Z,29.58
2018-04-27T12:13:48.994Z,29.29
2018-04-27T12:14:31.329Z,29.39
2018-04-27T12:15:12.071Z,29.49
2018-04-27T12:15:53.443Z,28.7
2018-04-27T12:16:34.174Z,29.38
2018-04-27T12:17:14.903Z,30.34
2018-04-27T12:17:55.295Z,30.15
2018-04-27T12:18:35.927Z,30.04
2018-04-27T12:19:16.571Z,30.71
2018-04-27T12:19:57.320Z,30.71
2018-04-27T12:22:32.692Z,31.77
2018-04-27T12:23:13.328Z,31.96
2018-04-27T12:23:55.828Z,31.57
2018-04-27T12:24:36.314Z,31.3
2018-04-27T12:25:16.952Z,30.53
2018-04-27T12:25:57.932Z,30.52
2018-04-27T12:26:40.378Z,31.19
2018-04-27T12:27:21.155Z,31.48
2018-04-27T12:28:01.767Z,30.73
2018-04-27T12:28:42.223Z,30.53
2018-04-27T12:29:24.068Z,28.99
2018-04-27T12:30:05.453Z,28.99
2018-04-27T12:30:46.929Z,29.08